Time;durP1;ratioP1;P1;durP2;ratioP2;P2;SDS_P1;SDS_P2;PMS_P1;PMS_P2;Temp;Humidity;BMP_temperature;BMP_pressure;BME280_temperature;BME280_humidity;BME280_pressure;Samples;Min_cycle;Max_cycle;Signal;HPM_P1;HPM_P2
2022/09/26 00:02:28;;;;;;;4.88;3.60;;;;;;;11.80;100.00;100901.50;5311376;28;20081;-76
2022/09/26 00:04:59;;;;;;;15.07;4.60;;;;;;;11.78;100.00;100896.41;5313962;28;20031;-76
2022/09/26 00:07:31;;;;;;;7.95;4.32;;;;;;;11.79;100.00;100902.50;5300566;28;20031;-75
2022/09/26 00:10:02;;;;;;;6.60;3.72;;;;;;;11.78;100.00;100899.03;5304796;28;20077;-78
2022/09/26 00:12:34;;;;;;;5.18;3.92;;;;;;;11.79;100.00;100892.81;5308982;28;20031;-75
2022/09/26 00:15:06;;;;;;;5.40;3.83;;;;;;;11.78;100.00;100885.91;5307686;28;20069;-75
2022/09/26 00:17:37;;;;;;;8.38;4.20;;;;;;;11.78;100.00;100874.56;5309439;28;20031;-76
2022/09/26 00:20:08;;;;;;;7.25;4.10;;;;;;;11.80;100.00;100877.88;5307442;28;20031;-77
2022/09/26 00:22:40;;;;;;;5.22;3.72;;;;;;;11.81;100.00;100879.53;5311414;28;20019;-75
2022/09/26 00:25:11;;;;;;;7.20;3.65;;;;;;;11.79;100.00;100866.56;5315075;28;20035;-75
2022/09/26 00:27:42;;;;;;;5.25;3.60;;;;;;;11.80;100.00;100864.78;5304401;28;20028;-75
2022/09/26 00:30:13;;;;;;;7.95;4.05;;;;;;;11.77;100.00;100855.38;5305906;28;20023;-75
2022/09/26 00:32:45;;;;;;;6.38;4.03;;;;;;;11.82;100.00;100858.41;5309237;28;20028;-77
2022/09/26 00:35:16;;;;;;;7.25;3.85;;;;;;;11.82;100.00;100852.31;5305204;28;20039;-75
2022/09/26 00:37:47;;;;;;;7.05;4.70;;;;;;;11.84;100.00;100853.88;5306999;28;20043;-75
2022/09/26 00:40:19;;;;;;;5.70;4.07;;;;;;;11.83;100.00;100841.72;5310256;28;20080;-78
2022/09/26 00:42:50;;;;;;;8.05;4.28;;;;;;;11.87;100.00;100842.28;5306362;28;20042;-75
2022/09/26 00:45:24;;;;;;;5.93;4.28;;;;;;;11.82;100.00;100839.19;5307415;28;20393;-75
2022/09/26 00:48:02;;;;;;;5.57;4.13;;;;;;;11.92;100.00;100838.25;5311053;28;20104;-78
2022/09/26 00:50:36;;;;;;;8.60;4.88;;;;;;;11.84;100.00;100835.50;5305905;28;20027;-79
2022/09/26 00:53:18;;;;;;;7.18;5.07;;;;;;;11.99;100.00;100821.97;5306542;28;20096;-75
2022/09/26 00:56:00;;;;;;;5.85;4.30;;;;;;;12.04;100.00;100824.97;5305855;28;20031;-73
2022/09/26 00:58:45;;;;;;;6.03;3.75;;;;;;;12.01;100.00;100806.88;5313214;28;20026;-77
2022/09/26 01:01:18;;;;;;;7.32;4.10;;;;;;;11.87;100.00;100801.09;5303851;28;20465;-75
2022/09/26 01:03:50;;;;;;;5.95;4.05;;;;;;;11.98;100.00;100797.50;5305256;28;20461;-75
2022/09/26 01:06:22;;;;;;;4.70;3.47;;;;;;;12.03;100.00;100802.34;5306649;28;20350;-75
2022/09/26 01:09:00;;;;;;;6.18;3.63;;;;;;;11.99;100.00;100777.31;5306942;28;20377;-78
2022/09/26 01:11:34;;;;;;;6.05;3.90;;;;;;;12.05;100.00;100784.66;5307672;28;20047;-75
2022/09/26 01:14:10;;;;;;;6.25;3.90;;;;;;;12.10;100.00;100780.63;5307307;28;20119;-75
2022/09/26 01:16:46;;;;;;;4.03;3.25;;;;;;;12.08;100.00;100768.59;5309865;28;20579;-76
2022/09/26 01:19:30;;;;;;;8.63;3.58;;;;;;;12.18;100.00;100772.84;5306961;28;20023;-76
2022/09/26 01:22:36;;;;;;;6.38;3.58;;;;;;;12.31;100.00;100762.06;5309101;28;20090;-79
2022/09/26 01:25:31;;;;;;;7.97;3.90;;;;;;;12.28;100.00;100762.34;5285963;28;20038;-75
2022/09/26 01:28:28;;;;;;;7.95;3.92;;;;;;;12.41;100.00;100751.50;5312090;28;20032;-78
2022/09/26 01:31:23;;;;;;;6.63;3.60;;;;;;;12.36;100.00;100749.31;5300564;28;20067;-76
2022/09/26 01:34:32;;;;;;;5.10;3.53;;;;;;;12.41;100.00;100736.56;5313738;28;20476;-78
2022/09/26 01:37:29;;;;;;;6.47;3.10;;;;;;;12.38;100.00;100728.13;5306726;28;20094;-75
2022/09/26 01:40:32;;;;;;;7.30;2.85;;;;;;;12.37;100.00;100722.06;5305750;28;20027;-75
2022/09/26 01:43:22;;;;;;;5.80;3.15;;;;;;;12.33;100.00;100722.50;5309641;28;20403;-75
2022/09/26 01:46:05;;;;;;;5.90;3.08;;;;;;;12.28;100.00;100715.06;5304869;28;20508;-76
2022/09/26 01:48:43;;;;;;;5.53;2.90;;;;;;;12.26;100.00;100701.22;5309145;28;20028;-77
2022/09/26 01:51:20;;;;;;;8.18;3.10;;;;;;;12.23;100.00;100704.13;5309226;28;20467;-75
2022/09/26 01:54:10;;;;;;;10.07;3.15;;;;;;;12.33;100.00;100697.03;5304028;28;20032;-78
2022/09/26 01:56:45;;;;;;;4.82;3.08;;;;;;;12.17;100.00;100686.34;5307197;28;20073;-77
2022/09/26 01:59:21;;;;;;;5.55;2.65;;;;;;;12.13;100.00;100680.53;5287978;28;20024;-77
2022/09/26 02:02:00;;;;;;;8.32;2.70;;;;;;;12.20;100.00;100678.19;5302897;28;20046;-75
2022/09/26 02:04:38;;;;;;;5.93;2.95;;;;;;;12.17;100.00;100676.66;5298639;28;20036;-77
2022/09/26 02:07:15;;;;;;;5.68;2.80;;;;;;;12.17;100.00;100666.16;5308169;28;20016;-75
2022/09/26 02:10:02;;;;;;;6.07;2.38;;;;;;;12.14;100.00;100663.00;5307181;28;20047;-77
2022/09/26 02:12:38;;;;;;;4.50;2.42;;;;;;;12.15;100.00;100659.38;5318275;28;20140;-76
2022/09/26 02:15:14;;;;;;;6.32;2.50;;;;;;;12.13;100.00;100656.09;5307613;28;20031;-76
2022/09/26 02:17:50;;;;;;;9.13;3.38;;;;;;;12.12;100.00;100657.03;5291409;28;20054;-77
2022/09/26 02:20:27;;;;;;;6.97;3.13;;;;;;;12.12;100.00;100646.53;5311112;28;20120;-75
2022/09/26 02:23:02;;;;;;;4.90;2.10;;;;;;;12.10;100.00;100643.25;5288817;28;20099;-75
2022/09/26 02:25:36;;;;;;;5.43;2.47;;;;;;;12.05;100.00;100630.56;5308792;28;20115;-77
2022/09/26 02:28:07;;;;;;;6.53;2.50;;;;;;;12.08;100.00;100632.03;5312312;28;20024;-77
2022/09/26 02:30:40;;;;;;;6.35;2.22;;;;;;;12.09;100.00;100628.47;5309517;28;20043;-75
2022/09/26 02:33:12;;;;;;;;;;;;;;;12.58;100.00;100627.22;5308769;28;20047;-77
2022/09/26 02:35:56;;;;;;;5.40;2.40;;;;;;;12.13;100.00;100621.94;5303649;28;19916;-75
2022/09/26 02:38:29;;;;;;;7.32;2.47;;;;;;;12.12;100.00;100617.66;5317126;28;20026;-75
2022/09/26 02:41:07;;;;;;;4.00;2.30;;;;;;;12.26;100.00;100618.97;5306000;28;20567;-77
2022/09/26 02:43:43;;;;;;;6.10;2.05;;;;;;;12.21;100.00;100615.97;5291549;28;20047;-75
2022/09/26 02:46:52;;;;;;;4.03;2.10;;;;;;;12.33;100.00;100612.97;5317292;28;20040;-75
2022/09/26 02:49:52;;;;;;;7.88;2.67;;;;;;;12.36;100.00;100610.06;5306933;28;20560;-75
2022/09/26 02:52:35;;;;;;;5.90;2.38;;;;;;;12.19;100.00;100610.84;5309175;28;20552;-75
2022/09/26 02:55:30;;;;;;;6.55;2.35;;;;;;;12.34;100.00;100601.50;5315133;28;20038;-75
2022/09/26 02:58:41;;;;;;;5.90;2.53;;;;;;;12.34;100.00;100591.00;5306714;28;20483;-75
2022/09/26 03:01:20;;;;;;;4.65;2.58;;;;;;;12.15;100.00;100578.78;5309087;28;20044;-75
2022/09/26 03:03:56;;;;;;;5.88;2.10;;;;;;;12.16;100.00;100580.47;5310711;28;20449;-75
2022/09/26 03:06:36;;;;;;;7.72;2.17;;;;;;;12.19;100.00;100576.69;5308459;28;20026;-75
2022/09/26 03:09:10;;;;;;;7.05;2.45;;;;;;;12.06;100.00;100571.81;5306916;28;20027;-75
2022/09/26 03:11:42;;;;;;;7.93;2.00;;;;;;;12.07;100.00;100565.56;5307118;28;20027;-75
2022/09/26 03:14:15;;;;;;;5.95;2.35;;;;;;;12.07;100.00;100562.13;5307201;28;20023;-75
2022/09/26 03:16:48;;;;;;;4.60;2.10;;;;;;;12.09;100.00;100558.38;5308575;28;20034;-75
2022/09/26 03:19:25;;;;;;;7.32;1.70;;;;;;;12.12;100.00;100562.50;5308267;28;20035;-75
2022/09/26 03:21:58;;;;;;;9.23;2.22;;;;;;;12.09;100.00;100547.06;5310278;28;20047;-75
2022/09/26 03:24:31;;;;;;;4.38;2.10;;;;;;;12.06;100.00;100548.19;5308552;28;20158;-75
2022/09/26 03:27:04;;;;;;;8.75;2.63;;;;;;;12.10;100.00;100546.91;5307478;28;20516;-75
2022/09/26 03:29:36;;;;;;;6.03;2.08;;;;;;;12.11;100.00;100537.22;5308908;28;20110;-75
2022/09/26 03:32:08;;;;;;;5.30;1.77;;;;;;;12.09;100.00;100539.19;5305899;28;20092;-75
2022/09/26 03:34:39;;;;;;;6.13;2.05;;;;;;;12.08;100.00;100537.50;5310075;28;20028;-75
2022/09/26 03:37:11;;;;;;;4.03;2.33;;;;;;;12.08;100.00;100527.00;5314211;28;20023;-75
2022/09/26 03:39:43;;;;;;;6.15;2.13;;;;;;;12.11;100.00;100524.09;5316240;28;20031;-72
2022/09/26 03:42:15;;;;;;;4.50;1.90;;;;;;;12.10;100.00;100511.94;5290049;28;20034;-73
2022/09/26 03:44:47;;;;;;;4.90;2.22;;;;;;;12.05;100.00;100508.94;5306323;28;20031;-73
2022/09/26 03:47:18;;;;;;;7.65;1.98;;;;;;;12.04;100.00;100499.41;5309275;28;20062;-73
2022/09/26 03:49:49;;;;;;;8.23;2.20;;;;;;;12.05;100.00;100511.56;5308747;28;20107;-73
2022/09/26 03:52:21;;;;;;;7.53;2.10;;;;;;;12.00;100.00;100505.91;5307801;28;20036;-73
2022/09/26 03:54:52;;;;;;;6.80;2.20;;;;;;;12.00;100.00;100504.13;5316506;28;20543;-73
2022/09/26 03:57:24;;;;;;;4.88;1.77;;;;;;;11.99;100.00;100497.22;5310227;28;20020;-73
2022/09/26 03:59:55;;;;;;;5.88;2.30;;;;;;;11.98;100.00;100487.69;5311573;28;20028;-73
2022/09/26 04:02:26;;;;;;;8.15;2.05;;;;;;;11.96;100.00;100478.31;5305809;28;20020;-73
2022/09/26 04:04:57;;;;;;;6.28;2.15;;;;;;;11.94;100.00;100475.84;5308249;28;20027;-73
2022/09/26 04:07:29;;;;;;;4.75;2.15;;;;;;;11.95;100.00;100481.91;5290686;28;20040;-73
2022/09/26 04:10:00;;;;;;;6.10;2.22;;;;;;;11.88;100.00;100472.00;5312523;28;20039;-73
2022/09/26 04:12:32;;;;;;;6.40;2.38;;;;;;;11.86;100.00;100466.09;5316299;28;20050;-73
2022/09/26 04:15:07;;;;;;;5.82;2.22;;;;;;;11.89;100.00;100459.69;5311005;28;20477;-73
2022/09/26 04:17:38;;;;;;;5.90;2.28;;;;;;;11.83;100.00;100453.25;5307849;28;20477;-73
2022/09/26 04:20:10;;;;;;;7.55;2.33;;;;;;;11.79;100.00;100433.50;5304942;28;20031;-73
2022/09/26 04:22:41;;;;;;;8.35;2.60;;;;;;;11.79;100.00;100430.88;5310963;28;20032;-73
2022/09/26 04:25:13;;;;;;;6.80;2.30;;;;;;;11.79;100.00;100422.19;5306514;28;20377;-73
2022/09/26 04:27:44;;;;;;;6.38;2.08;;;;;;;11.81;100.00;100425.47;5307777;28;20332;-74
2022/09/26 04:30:16;;;;;;;4.20;2.05;;;;;;;11.80;100.00;100422.00;5307771;28;20069;-74
2022/09/26 04:32:47;;;;;;;5.28;1.98;;;;;;;11.80;100.00;100423.81;5310379;28;20035;-74
2022/09/26 04:35:18;;;;;;;6.95;2.08;;;;;;;11.79;100.00;100420.38;5311666;28;20027;-74
2022/09/26 04:37:50;;;;;;;5.22;1.98;;;;;;;11.76;100.00;100409.34;5307941;28;20020;-74
2022/09/26 04:40:21;;;;;;;5.07;1.60;;;;;;;11.74;100.00;100401.59;5306488;28;20024;-74
2022/09/26 04:42:52;;;;;;;5.53;1.90;;;;;;;11.78;100.00;100384.63;5314061;28;20059;-73
2022/09/26 04:45:24;;;;;;;4.45;1.90;;;;;;;11.77;100.00;100384.75;5308305;28;20035;-74
2022/09/26 04:47:55;;;;;;;5.70;1.95;;;;;;;11.70;100.00;100366.13;5305427;28;20102;-74
2022/09/26 04:50:27;;;;;;;5.10;2.22;;;;;;;11.79;100.00;100367.06;5306759;28;20027;-73
2022/09/26 04:53:03;;;;;;;6.03;2.08;;;;;;;11.80;100.00;100363.44;5313184;28;20329;-73
2022/09/26 04:55:34;;;;;;;6.28;1.90;;;;;;;11.77;100.00;100358.50;5293243;28;20024;-73
2022/09/26 04:58:05;;;;;;;4.90;2.38;;;;;;;11.75;100.00;100345.53;5307260;28;20388;-73
2022/09/26 05:00:44;;;;;;;4.72;1.98;;;;;;;11.82;100.00;100346.59;5305180;28;20385;-73
2022/09/26 05:03:16;;;;;;;7.38;2.50;;;;;;;11.70;100.00;100339.91;5305969;28;20066;-73
2022/09/26 05:05:48;;;;;;;6.03;2.33;;;;;;;11.71;100.00;100336.31;5309657;28;20059;-74
2022/09/26 05:08:20;;;;;;;4.03;2.17;;;;;;;11.68;100.00;100328.75;5300782;28;20057;-74
2022/09/26 05:10:53;;;;;;;4.72;2.40;;;;;;;11.70;100.00;100332.03;5300611;28;20035;-73
2022/09/26 05:13:25;;;;;;;3.85;2.25;;;;;;;11.64;100.00;100324.78;5303249;28;20028;-73
2022/09/26 05:16:01;;;;;;;10.52;3.28;;;;;;;11.65;100.00;100308.84;5314090;28;20028;-73
2022/09/26 05:18:32;;;;;;;6.35;2.30;;;;;;;11.62;100.00;100293.41;5304338;28;20104;-73
2022/09/26 05:21:05;;;;;;;6.65;2.58;;;;;;;11.62;100.00;100292.59;5311578;28;20028;-73
2022/09/26 05:26:41;;;;;;;7.05;2.50;;;;;;;11.68;100.00;100292.81;5313410;28;20051;-73
2022/09/26 05:29:12;;;;;;;5.90;2.50;;;;;;;11.64;100.00;100288.03;5304964;28;20024;-74
2022/09/26 05:31:44;;;;;;;6.65;2.58;;;;;;;11.62;100.00;100288.16;5314214;28;20076;-73
2022/09/26 05:34:16;;;;;;;5.72;2.90;;;;;;;11.63;100.00;100288.97;5311470;28;20111;-74
2022/09/26 05:36:47;;;;;;;8.63;3.53;;;;;;;11.62;100.00;100282.09;5305663;28;20402;-74
2022/09/26 05:42:08;;;;;;;7.45;3.08;;;;;;;11.62;100.00;100289.97;5304555;28;20032;-73
2022/09/26 05:44:40;;;;;;;8.90;2.90;;;;;;;11.56;100.00;100264.34;5303867;28;20019;-74
2022/09/26 05:47:11;;;;;;;6.88;3.15;;;;;;;11.67;100.00;100285.13;5310483;28;20087;-73
2022/09/26 05:49:43;;;;;;;9.43;3.72;;;;;;;11.68;100.00;100281.50;5308045;28;20031;-73
2022/09/26 05:52:14;;;;;;;5.40;2.95;;;;;;;11.67;100.00;100279.88;5309779;28;20426;-73
2022/09/26 05:54:45;;;;;;;10.98;3.75;;;;;;;11.60;100.00;100263.91;5310438;28;20034;-73
2022/09/26 05:57:16;;;;;;;9.20;3.00;;;;;;;11.64;100.00;100274.91;5301811;28;20023;-73
2022/09/26 05:59:48;;;;;;;7.53;2.85;;;;;;;11.65;100.00;100276.56;5305679;28;20039;-73
2022/09/26 06:02:19;;;;;;;6.22;3.17;;;;;;;11.58;100.00;100254.50;5291473;28;20038;-74
2022/09/26 06:04:50;;;;;;;10.90;3.58;;;;;;;11.67;100.00;100269.38;5310891;28;20096;-75
2022/09/26 06:07:21;;;;;;;8.15;3.28;;;;;;;11.64;100.00;100261.78;5303659;28;20035;-74
2022/09/26 06:09:53;;;;;;;6.05;3.22;;;;;;;11.67;100.00;100249.19;5301376;28;20116;-75
2022/09/26 06:12:27;;;;;;;6.80;3.20;;;;;;;11.69;100.00;100233.28;5302580;28;20020;-75
2022/09/26 06:14:58;;;;;;;8.55;3.05;;;;;;;11.66;100.00;100236.22;5299230;28;20107;-75
2022/09/26 06:17:29;;;;;;;8.07;3.10;;;;;;;11.67;100.00;100233.44;5304987;28;20149;-75
2022/09/26 06:20:02;;;;;;;5.78;2.78;;;;;;;11.68;100.00;100224.59;5309591;28;20031;-75
2022/09/26 06:22:39;;;;;;;7.97;2.78;;;;;;;11.78;100.00;100205.31;5306638;28;20032;-75
2022/09/26 06:25:10;;;;;;;8.50;2.63;;;;;;;11.66;100.00;100205.53;5301007;28;20027;-75
2022/09/26 06:27:42;;;;;;;6.10;2.63;;;;;;;11.68;100.00;100197.53;5307580;28;20043;-75
2022/09/26 06:30:15;;;;;;;5.23;2.30;;;;;;;11.72;100.00;100192.81;5298910;28;20477;-75
2022/09/26 06:32:46;;;;;;;8.73;2.80;;;;;;;11.68;100.00;100176.56;5308534;28;20388;-75
2022/09/26 06:35:18;;;;;;;5.82;2.63;;;;;;;11.69;100.00;100167.69;5307408;28;20122;-75
2022/09/26 06:37:50;;;;;;;6.75;2.20;;;;;;;11.78;100.00;100172.03;5303494;28;20023;-75
2022/09/26 06:40:21;;;;;;;5.55;2.30;;;;;;;11.84;100.00;100178.47;5307755;28;20028;-75
2022/09/26 06:42:54;;;;;;;4.13;2.45;;;;;;;11.86;100.00;100164.25;5288010;28;20480;-75
2022/09/26 06:45:25;;;;;;;6.28;2.50;;;;;;;11.86;100.00;100163.41;5302004;28;20507;-75
2022/09/26 06:48:01;;;;;;;4.57;1.98;;;;;;;11.89;100.00;100145.56;5303578;28;20048;-76
2022/09/26 06:50:32;;;;;;;6.97;2.08;;;;;;;11.84;100.00;100123.38;5309771;28;20038;-76
2022/09/26 06:53:04;;;;;;;9.65;1.98;;;;;;;11.92;100.00;100129.47;5310144;28;20027;-75
2022/09/26 06:55:35;;;;;;;4.47;2.10;;;;;;;11.91;100.00;100119.97;5307912;28;20495;-75
2022/09/26 06:58:06;;;;;;;5.50;1.88;;;;;;;11.91;100.00;100122.59;5313764;28;20103;-75
2022/09/26 07:00:39;;;;;;;4.82;1.48;;;;;;;11.99;100.00;100120.97;5307905;28;20088;-75
2022/09/26 07:03:12;;;;;;;5.23;1.90;;;;;;;11.96;100.00;100118.66;5308941;28;20055;-75
2022/09/26 07:05:44;;;;;;;4.60;1.63;;;;;;;11.95;100.00;100109.97;5311542;28;20024;-75
2022/09/26 07:08:15;;;;;;;5.10;1.92;;;;;;;12.07;100.00;100105.25;5302981;28;20386;-75
2022/09/26 07:10:47;;;;;;;5.82;1.58;;;;;;;12.04;100.00;100100.31;5306767;28;20389;-75
2022/09/26 07:13:18;;;;;;;3.30;1.42;;;;;;;12.16;100.00;100099.09;5315398;28;20539;-76
2022/09/26 07:15:49;;;;;;;7.68;1.77;;;;;;;12.14;100.00;100087.91;5312237;28;20084;-76
2022/09/26 07:18:21;;;;;;;6.05;1.95;;;;;;;12.14;100.00;100082.66;5308048;28;20081;-76
2022/09/26 07:20:52;;;;;;;5.90;2.33;;;;;;;12.14;100.00;100080.84;5309045;28;20024;-76
2022/09/26 07:23:23;;;;;;;3.80;1.63;;;;;;;12.08;100.00;100067.53;5312921;28;20028;-75
2022/09/26 07:25:54;;;;;;;4.95;1.55;;;;;;;12.12;100.00;100067.06;5309028;28;20489;-75
2022/09/26 07:28:26;;;;;;;4.15;1.70;;;;;;;12.23;100.00;100073.81;5313680;28;20499;-75
2022/09/26 07:30:58;;;;;;;4.75;1.80;;;;;;;12.24;100.00;100074.66;5310727;28;20434;-75
2022/09/26 07:33:29;;;;;;;6.28;1.67;;;;;;;12.23;100.00;100075.59;5307786;28;20511;-75
2022/09/26 07:36:01;;;;;;;3.58;1.73;;;;;;;12.31;100.00;100075.63;5305811;28;20024;-75
2022/09/26 07:38:32;;;;;;;4.72;1.90;;;;;;;12.34;100.00;100073.50;5319334;28;20035;-75
2022/09/26 07:41:03;;;;;;;4.88;2.00;;;;;;;12.32;100.00;100066.78;5308606;28;20020;-75
2022/09/26 07:43:35;;;;;;;4.45;1.80;;;;;;;12.44;100.00;100067.31;5305468;28;20122;-75
2022/09/26 07:51:46;;;;;;;5.80;1.85;;;;;;;12.50;100.00;100056.13;5310999;28;20035;-75
2022/09/26 07:54:18;;;;;;;6.45;1.80;;;;;;;12.53;100.00;100056.63;5306835;28;20556;-75
2022/09/26 07:56:50;;;;;;;3.95;1.67;;;;;;;12.51;100.00;100047.28;5303252;28;20067;-74
2022/09/26 07:59:24;;;;;;;11.15;2.58;;;;;;;12.52;100.00;100046.31;5307975;28;20456;-75
2022/09/26 08:01:56;;;;;;;4.03;1.67;;;;;;;12.62;100.00;100060.94;5303523;28;20058;-74
2022/09/26 08:04:28;;;;;;;4.68;1.88;;;;;;;12.66;100.00;100051.75;5306086;28;20465;-75
2022/09/26 08:07:00;;;;;;;4.97;2.05;;;;;;;12.70;100.00;100041.72;5304606;28;20035;-75
2022/09/26 08:09:31;;;;;;;4.15;2.00;;;;;;;12.64;100.00;100021.34;5305177;28;20503;-75
2022/09/26 08:12:03;;;;;;;5.03;1.60;;;;;;;12.74;100.00;100036.97;5302669;28;20111;-75
2022/09/26 08:14:34;;;;;;;5.43;1.77;;;;;;;12.78;100.00;100033.84;5303458;28;20065;-75
2022/09/26 08:17:06;;;;;;;6.72;1.80;;;;;;;12.79;100.00;100035.47;5311566;28;20089;-75
2022/09/26 08:19:37;;;;;;;5.75;1.65;;;;;;;12.77;100.00;100015.63;5304247;28;20031;-75
2022/09/26 08:22:10;;;;;;;4.85;1.58;;;;;;;12.69;100.00;100013.81;5307104;28;20311;-75
2022/09/26 08:24:43;;;;;;;6.43;1.80;;;;;;;12.80;100.00;100037.09;5306301;28;20036;-75
2022/09/26 08:27:17;;;;;;;7.22;1.75;;;;;;;12.81;100.00;100037.97;5300502;28;20542;-75
2022/09/26 08:29:49;;;;;;;5.43;1.70;;;;;;;12.80;100.00;100033.66;5309219;28;20464;-75
2022/09/26 08:32:21;;;;;;;5.30;1.85;;;;;;;12.78;100.00;100019.88;5306261;28;20034;-75
2022/09/26 08:34:52;;;;;;;4.95;1.90;;;;;;;12.72;100.00;100018.72;5311252;28;20024;-75
2022/09/26 08:37:27;;;;;;;7.38;2.22;;;;;;;12.78;100.00;100027.75;5307708;28;20377;-75
2022/09/26 08:39:59;;;;;;;3.75;1.65;;;;;;;12.77;100.00;100021.69;5292533;28;20035;-75
2022/09/26 08:42:41;;;;;;;5.82;1.70;;;;;;;12.80;100.00;100013.44;5304672;28;20084;-75
2022/09/26 08:48:59;;;;;;;6.57;1.95;;;;;;;13.15;100.00;100009.66;5305117;28;20051;-75
2022/09/26 08:51:36;;;;;;;3.88;1.45;;;;;;;13.00;100.00;100008.69;5306899;28;20088;-75
2022/09/26 08:54:15;;;;;;;5.35;1.92;;;;;;;13.03;100.00;100003.13;5310385;28;20118;-75
2022/09/26 08:56:59;;;;;;;7.65;2.00;;;;;;;13.17;100.00;100006.84;5305115;28;20496;-75
2022/09/26 08:59:39;;;;;;;5.00;2.35;;;;;;;13.17;100.00;100001.59;5301952;28;20031;-75
2022/09/26 09:02:22;;;;;;;7.65;2.13;;;;;;;13.04;100.00;99988.16;5311229;28;20027;-75
2022/09/26 09:05:01;;;;;;;6.43;1.70;;;;;;;13.15;100.00;99995.69;5307627;28;20385;-75
2022/09/26 09:07:33;;;;;;;4.95;1.45;;;;;;;13.15;100.00;99995.69;5305884;28;20473;-75
2022/09/26 09:10:10;;;;;;;4.22;1.80;;;;;;;13.24;100.00;100005.22;5297914;28;20034;-76
2022/09/26 09:13:14;;;;;;;5.05;1.85;;;;;;;13.44;100.00;99986.44;5306201;28;20077;-76
2022/09/26 09:16:04;;;;;;;5.60;1.80;;;;;;;13.25;100.00;99993.72;5311292;28;20035;-76
2022/09/26 09:18:54;;;;;;;10.15;2.08;;;;;;;13.37;100.00;99981.84;5304078;28;20110;-76
2022/09/26 09:21:36;;;;;;;6.45;2.30;;;;;;;13.39;100.00;99973.78;5314442;28;20031;-75
2022/09/26 09:24:17;;;;;;;5.07;1.92;;;;;;;13.39;100.00;99971.16;5301750;28;20020;-75
2022/09/26 09:27:03;;;;;;;5.60;2.00;;;;;;;13.32;100.00;99960.47;5300055;28;20081;-75
2022/09/26 09:29:56;;;;;;;5.97;2.38;;;;;;;13.53;100.00;99959.09;5309609;28;20032;-76
2022/09/26 09:32:40;;;;;;;4.43;1.90;;;;;;;13.36;100.00;99943.38;5311903;28;20020;-76
2022/09/26 09:35:15;;;;;;;5.78;2.40;;;;;;;13.36;100.00;99946.00;5306904;28;20116;-76
2022/09/26 09:37:49;;;;;;;8.60;2.30;;;;;;;13.25;100.00;99943.72;5308561;28;20132;-76
2022/09/26 09:40:28;;;;;;;7.20;2.30;;;;;;;13.28;100.00;99946.03;5304756;28;20082;-76
2022/09/26 09:43:31;;;;;;;7.38;2.15;;;;;;;13.55;100.00;99936.88;5301417;28;20031;-76
2022/09/26 09:46:10;;;;;;;8.23;2.35;;;;;;;13.27;100.00;99919.91;5273476;28;20071;-76
2022/09/26 09:48:42;;;;;;;3.58;2.00;;;;;;;13.24;100.00;99918.44;5310418;28;20039;-76
2022/09/26 09:51:51;;;;;;;6.07;2.67;;;;;;;13.48;100.00;99924.56;5304654;28;20051;-76
2022/09/26 09:54:47;;;;;;;4.70;1.55;;;;;;;13.54;100.00;99905.47;5300769;28;20151;-76
2022/09/26 09:57:53;;;;;;;8.05;2.20;;;;;;;13.52;100.00;99895.09;5312565;28;20020;-76
2022/09/26 10:00:26;;;;;;;6.53;2.03;;;;;;;13.29;100.00;99905.56;5306212;28;20031;-76
2022/09/26 10:03:10;;;;;;;5.70;2.50;;;;;;;13.31;100.00;99893.09;5305085;28;20077;-76
2022/09/26 10:05:47;;;;;;;5.97;2.20;;;;;;;13.32;100.00;99888.63;5301504;28;20032;-76
2022/09/26 10:08:30;;;;;;;4.72;2.22;;;;;;;13.41;100.00;99886.78;5304036;28;20387;-76
2022/09/26 10:11:21;;;;;;;4.90;2.28;;;;;;;13.38;100.00;99880.06;5303530;28;20035;-76
2022/09/26 10:13:55;;;;;;;5.28;2.15;;;;;;;13.37;100.00;99875.78;5298617;28;20062;-76
2022/09/26 10:16:27;;;;;;;8.50;2.95;;;;;;;13.49;100.00;99873.59;5288362;28;20023;-76
2022/09/26 10:19:07;;;;;;;5.90;2.30;;;;;;;13.62;100.00;99871.22;5313171;28;20031;-76
2022/09/26 10:21:42;;;;;;;5.82;2.35;;;;;;;13.57;100.00;99860.41;5308939;28;20020;-76
2022/09/26 10:24:40;;;;;;;4.72;2.13;;;;;;;13.80;100.00;99868.31;5308465;28;20115;-76
2022/09/26 10:27:23;;;;;;;5.05;1.98;;;;;;;13.72;100.00;99868.38;5295947;28;20040;-76
2022/09/26 10:29:57;;;;;;;8.75;3.20;;;;;;;13.47;100.00;99865.06;5316003;28;20059;-76
2022/09/26 10:32:29;;;;;;;6.00;2.63;;;;;;;13.38;100.00;99845.88;5309767;28;20035;-76
2022/09/26 10:35:19;;;;;;;5.03;2.53;;;;;;;13.53;100.00;99848.59;5310592;28;20503;-76
2022/09/26 10:38:00;;;;;;;3.95;2.10;;;;;;;13.43;100.00;99843.53;5316331;28;20023;-76
2022/09/26 10:40:44;;;;;;;4.93;2.05;;;;;;;13.44;100.00;99846.97;5313473;28;20028;-76
2022/09/26 10:43:21;;;;;;;6.57;2.72;;;;;;;13.38;100.00;99853.75;5308750;28;20028;-76
2022/09/26 10:46:14;;;;;;;6.78;2.45;;;;;;;13.33;100.00;99841.13;5308238;28;20030;-76
2022/09/26 10:48:50;;;;;;;5.25;2.28;;;;;;;13.39;100.00;99839.59;5306875;28;20079;-76
2022/09/26 10:51:36;;;;;;;5.95;2.25;;;;;;;13.42;100.00;99835.81;5310315;28;20064;-76
2022/09/26 10:54:13;;;;;;;6.35;2.20;;;;;;;13.33;100.00;99835.88;5315197;28;20042;-76
2022/09/26 10:56:56;;;;;;;8.30;2.83;;;;;;;13.41;100.00;99823.63;5312101;28;20366;-76
2022/09/26 10:59:34;;;;;;;7.35;2.58;;;;;;;13.33;100.00;99833.25;5307674;28;20036;-76
2022/09/26 11:02:16;;;;;;;5.50;2.40;;;;;;;13.27;100.00;99823.41;5312011;28;20385;-76
2022/09/26 11:07:48;;;;;;;5.32;2.70;;;;;;;13.26;100.00;99821.75;5307495;28;20032;-75
2022/09/26 11:10:27;;;;;;;5.25;2.50;;;;;;;13.33;100.00;99827.97;5301954;28;20473;-76
2022/09/26 11:13:02;;;;;;;5.63;2.63;;;;;;;13.40;100.00;99822.81;5307414;28;20024;-76
2022/09/26 11:15:38;;;;;;;7.18;2.55;;;;;;;13.44;100.00;99813.59;5307518;28;20043;-75
2022/09/26 11:18:19;;;;;;;8.07;3.22;;;;;;;13.43;100.00;99811.97;5308111;28;20072;-76
2022/09/26 11:20:53;;;;;;;5.60;2.40;;;;;;;13.28;100.00;99811.06;5305529;28;20033;-76
2022/09/26 11:23:32;;;;;;;6.80;2.42;;;;;;;13.30;100.00;99811.72;5308118;28;20036;-75
2022/09/26 11:26:05;;;;;;;8.13;2.70;;;;;;;13.24;100.00;99802.69;5309974;28;20026;-75
2022/09/26 11:29:07;;;;;;;4.38;2.20;;;;;;;13.33;100.00;99804.31;5311777;28;20106;-75
2022/09/26 11:31:41;;;;;;;5.25;2.33;;;;;;;13.20;100.00;99795.28;5255203;28;20047;-76
2022/09/26 11:34:16;;;;;;;5.53;2.30;;;;;;;13.16;100.00;99805.34;5306235;28;20085;-76
2022/09/26 11:37:09;;;;;;;6.90;2.55;;;;;;;13.20;100.00;99801.38;5312772;28;20113;-76
2022/09/26 11:40:02;;;;;;;6.35;2.40;;;;;;;13.25;100.00;99796.44;5303555;28;20499;-76
2022/09/26 11:43:12;;;;;;;4.78;2.17;;;;;;;13.45;100.00;99801.25;5312766;28;20031;-75
2022/09/26 11:46:07;;;;;;;4.13;2.10;;;;;;;13.44;100.00;99792.53;5308494;28;20054;-76
2022/09/26 11:48:52;;;;;;;5.85;2.35;;;;;;;13.26;100.00;99790.19;5308518;28;20042;-75
2022/09/26 11:52:00;;;;;;;6.50;2.35;;;;;;;13.21;100.00;99762.72;5313113;28;20469;-75
2022/09/26 11:54:58;;;;;;;4.97;2.15;;;;;;;13.36;100.00;99790.78;5307624;28;20119;-76
2022/09/26 11:57:43;;;;;;;4.40;2.17;;;;;;;13.22;100.00;99791.50;5303033;28;20059;-75
2022/09/26 12:00:25;;;;;;;4.38;1.85;;;;;;;13.25;100.00;99787.72;5310102;28;20020;-76
2022/09/26 12:03:05;;;;;;;4.25;2.10;;;;;;;13.26;100.00;99784.09;5307288;28;20108;-75
2022/09/26 12:06:21;;;;;;;6.80;2.22;;;;;;;13.50;100.00;99783.13;5305591;28;20028;-75
2022/09/26 12:09:10;;;;;;;3.00;1.85;;;;;;;13.31;100.00;99782.59;5262771;28;20055;-76
2022/09/26 12:11:58;;;;;;;3.65;1.75;;;;;;;13.37;100.00;99775.81;5305064;28;20027;-76
2022/09/26 12:14:51;;;;;;;4.60;1.95;;;;;;;13.37;100.00;99778.44;5311233;28;20480;-75
2022/09/26 12:17:42;;;;;;;5.35;2.05;;;;;;;13.37;100.00;99774.03;5312748;28;20023;-76
2022/09/26 12:20:40;;;;;;;9.38;2.35;;;;;;;13.39;100.00;99768.56;5308522;28;20740;-76
2022/09/26 12:23:25;;;;;;;3.17;1.83;;;;;;;13.29;100.00;99768.78;5310739;28;20100;-76
2022/09/26 12:26:07;;;;;;;4.00;2.00;;;;;;;13.32;100.00;99760.56;5283339;28;20500;-76